createdAt,value
2019-03-15T00:00:06.828Z,2.73
2019-03-15T00:02:48.105Z,2.57
2019-03-15T00:05:29.808Z,2.63
2019-03-15T00:08:11.326Z,2.73
2019-03-15T00:10:53.414Z,3.00
2019-03-15T00:13:35.061Z,3.03
2019-03-15T00:16:17.001Z,3.00
2019-03-15T00:18:58.646Z,2.57
2019-03-15T00:21:40.284Z,2.83
2019-03-15T00:24:21.872Z,2.90
2019-03-15T00:27:03.910Z,3.37
2019-03-15T00:29:45.029Z,3.10
2019-03-15T00:32:26.909Z,3.00
2019-03-15T00:35:09.603Z,3.10
2019-03-15T00:37:51.313Z,3.00
2019-03-15T00:40:33.321Z,4.03
2019-03-15T00:43:14.444Z,2.80
2019-03-15T00:45:56.332Z,2.70
2019-03-15T00:48:37.514Z,3.00
2019-03-15T00:51:19.346Z,2.73
2019-03-15T00:54:01.254Z,2.80
2019-03-15T00:56:42.359Z,3.27
2019-03-15T00:59:23.564Z,2.97
2019-03-15T01:02:05.509Z,2.43
2019-03-15T01:04:46.742Z,2.80
2019-03-15T01:07:28.449Z,2.60
2019-03-15T01:10:09.581Z,2.50
2019-03-15T01:12:51.025Z,2.77
2019-03-15T01:15:32.816Z,3.23
2019-03-15T01:18:14.496Z,3.67
2019-03-15T01:20:56.484Z,6.07
2019-03-15T01:23:38.559Z,4.00
2019-03-15T01:26:20.173Z,3.53
2019-03-15T01:29:02.188Z,4.40
2019-03-15T01:31:43.415Z,4.17
2019-03-15T01:34:25.208Z,4.07
2019-03-15T01:37:06.787Z,4.80
2019-03-15T01:39:48.773Z,4.97
2019-03-15T01:42:30.664Z,6.57
2019-03-15T01:45:11.873Z,6.83
2019-03-15T01:47:53.873Z,6.07
2019-03-15T01:50:35.701Z,5.03
2019-03-15T01:53:15.470Z,3.40
2019-03-15T01:56:04.180Z,3.20
2019-03-15T01:58:45.657Z,4.03
2019-03-15T02:01:27.616Z,2.63
2019-03-15T02:04:09.733Z,2.77
2019-03-15T02:06:51.737Z,3.30
2019-03-15T02:09:33.663Z,2.97
2019-03-15T02:12:15.447Z,3.10
2019-03-15T02:14:57.444Z,2.70
2019-03-15T02:17:39.259Z,2.70
2019-03-15T02:20:21.136Z,4.57
2019-03-15T02:23:02.337Z,3.10
2019-03-15T02:25:46.153Z,3.33
2019-03-15T02:28:30.507Z,3.90
2019-03-15T02:31:11.901Z,3.40
2019-03-15T02:33:52.998Z,3.17
2019-03-15T02:36:34.234Z,3.27
2019-03-15T02:39:15.912Z,3.57
2019-03-15T02:41:57.029Z,3.80
2019-03-15T02:44:39.358Z,3.40
2019-03-15T02:47:20.646Z,3.90
2019-03-15T02:50:02.474Z,3.63
2019-03-15T02:52:43.952Z,3.97
2019-03-15T02:55:25.197Z,4.23
2019-03-15T02:58:06.471Z,3.00
2019-03-15T03:00:48.278Z,4.80
2019-03-15T03:03:30.284Z,4.77
2019-03-15T03:06:12.238Z,3.73
2019-03-15T03:08:54.131Z,3.37
2019-03-15T03:11:35.535Z,3.63
2019-03-15T03:14:17.380Z,4.50
2019-03-15T03:16:59.309Z,3.50
2019-03-15T03:19:41.400Z,4.03
2019-03-15T03:22:23.233Z,3.70
2019-03-15T03:25:04.416Z,3.70
2019-03-15T03:27:46.484Z,3.37
2019-03-15T03:30:28.169Z,3.43
2019-03-15T03:33:12.001Z,3.93
2019-03-15T03:35:53.365Z,3.93
2019-03-15T03:38:34.937Z,3.43
2019-03-15T03:41:16.168Z,3.67
2019-03-15T03:43:58.099Z,3.80
2019-03-15T03:46:39.663Z,3.87
2019-03-15T03:49:21.353Z,4.13
2019-03-15T03:52:03.093Z,3.90
2019-03-15T03:54:44.203Z,3.57
2019-03-15T03:57:26.003Z,3.57
2019-03-15T04:00:07.105Z,4.70
2019-03-15T04:02:49.203Z,4.10
2019-03-15T04:05:31.174Z,4.37
2019-03-15T04:08:13.173Z,4.43
2019-03-15T04:10:55.155Z,3.50
2019-03-15T04:13:36.797Z,3.33
2019-03-15T04:16:18.540Z,3.20
2019-03-15T04:19:00.070Z,3.60
2019-03-15T04:21:41.864Z,3.60
2019-03-15T04:24:23.026Z,3.40
2019-03-15T04:27:04.628Z,4.43
2019-03-15T04:29:46.540Z,3.27
2019-03-15T04:32:28.191Z,3.37
2019-03-15T04:35:10.186Z,3.20
2019-03-15T04:37:51.336Z,3.17
2019-03-15T04:40:33.261Z,4.37
2019-03-15T04:43:14.347Z,3.13
2019-03-15T04:45:55.529Z,3.53
2019-03-15T04:48:37.383Z,3.77
2019-03-15T04:51:19.263Z,3.53
2019-03-15T04:54:00.925Z,3.17
2019-03-15T04:56:42.733Z,3.70
2019-03-15T04:59:24.603Z,3.67
2019-03-15T05:02:06.282Z,3.50
2019-03-15T05:04:47.959Z,4.13
2019-03-15T05:07:29.795Z,3.30
2019-03-15T05:10:11.509Z,4.03
2019-03-15T05:12:53.230Z,5.07
2019-03-15T05:15:37.912Z,3.20
2019-03-15T05:18:19.436Z,3.63
2019-03-15T05:21:00.632Z,4.37
2019-03-15T05:23:42.279Z,3.57
2019-03-15T05:26:23.821Z,3.50
2019-03-15T05:29:05.745Z,4.83
2019-03-15T05:31:47.700Z,4.03
2019-03-15T05:34:29.248Z,4.57
2019-03-15T05:37:11.102Z,5.47
2019-03-15T05:39:52.390Z,5.97
2019-03-15T05:42:34.309Z,5.27
2019-03-15T05:45:15.517Z,4.90
2019-03-15T05:47:56.686Z,5.20
2019-03-15T05:50:40.692Z,4.67
2019-03-15T05:53:21.197Z,6.23
2019-03-15T05:56:02.886Z,5.10
2019-03-15T05:58:44.574Z,4.63
2019-03-15T06:01:26.646Z,4.33
2019-03-15T06:04:08.465Z,5.53
2019-03-15T06:06:50.002Z,5.47
2019-03-15T06:09:32.000Z,7.23
2019-03-15T06:12:13.451Z,5.90
2019-03-15T06:14:55.592Z,5.20
2019-03-15T06:17:36.860Z,6.43
2019-03-15T06:20:18.289Z,5.87
2019-03-15T06:23:00.214Z,5.50
2019-03-15T06:25:41.859Z,6.43
2019-03-15T06:28:23.731Z,8.37
2019-03-15T06:31:05.484Z,6.80
2019-03-15T06:33:47.476Z,8.97
2019-03-15T06:36:28.658Z,6.90
2019-03-15T06:39:10.752Z,7.07
2019-03-15T06:41:53.696Z,5.60
2019-03-15T06:44:37.524Z,5.57
2019-03-15T06:47:18.502Z,6.33
2019-03-15T06:49:47.962Z,6.87
2019-03-15T06:52:36.680Z,6.37
2019-03-15T06:55:17.885Z,7.27
2019-03-15T06:57:59.052Z,7.43
2019-03-15T07:00:40.533Z,6.83
2019-03-15T07:03:21.777Z,6.87
2019-03-15T07:06:03.809Z,5.90
2019-03-15T07:08:45.234Z,6.27
2019-03-15T07:11:26.678Z,6.10
2019-03-15T07:14:08.321Z,5.80
2019-03-15T07:16:50.268Z,6.27
2019-03-15T07:19:32.062Z,7.07
2019-03-15T07:22:13.625Z,6.93
2019-03-15T07:24:55.458Z,7.00
2019-03-15T07:27:37.421Z,7.20
2019-03-15T07:30:19.224Z,6.53
2019-03-15T07:33:01.218Z,7.40
2019-03-15T07:35:43.326Z,6.50
2019-03-15T07:38:24.757Z,7.07
2019-03-15T07:41:06.658Z,7.77
2019-03-15T07:43:48.559Z,6.80
2019-03-15T07:46:30.546Z,9.23
2019-03-15T07:49:11.713Z,9.07
2019-03-15T07:51:53.630Z,7.87
2019-03-15T07:54:38.330Z,6.47
2019-03-15T07:57:18.427Z,6.37
2019-03-15T07:59:47.828Z,5.73
2019-03-15T08:02:17.208Z,6.50
2019-03-15T08:04:46.567Z,7.37
2019-03-15T08:07:19.978Z,6.07
2019-03-15T08:09:50.968Z,5.40
2019-03-15T08:12:18.118Z,5.87
2019-03-15T08:14:47.512Z,10.70
2019-03-15T08:17:16.938Z,5.40
2019-03-15T08:19:46.322Z,5.40
2019-03-15T08:22:15.727Z,4.57
2019-03-15T08:24:51.489Z,5.43
2019-03-15T08:27:16.311Z,5.30
2019-03-15T08:29:45.740Z,4.57
2019-03-15T08:32:15.104Z,3.47
2019-03-15T08:34:44.460Z,4.17
2019-03-15T08:37:13.839Z,4.20
2019-03-15T08:39:43.216Z,3.97
2019-03-15T08:42:12.597Z,3.83
2019-03-15T08:44:41.956Z,4.10
2019-03-15T08:47:11.500Z,4.33
2019-03-15T08:49:40.935Z,4.37
2019-03-15T08:52:10.366Z,4.17
2019-03-15T08:54:39.795Z,3.43
2019-03-15T08:57:09.165Z,3.73
2019-03-15T08:59:52.158Z,3.30
2019-03-15T09:02:09.612Z,3.07
2019-03-15T09:04:39.005Z,2.90
2019-03-15T09:07:08.376Z,2.10
2019-03-15T09:09:37.761Z,2.33
2019-03-15T09:12:07.145Z,1.83
2019-03-15T09:14:36.584Z,1.87
2019-03-15T09:17:05.975Z,2.17
2019-03-15T09:19:35.650Z,2.10
2019-03-15T09:22:05.043Z,1.80
2019-03-15T09:24:34.394Z,1.33
2019-03-15T09:27:03.777Z,1.83
2019-03-15T09:29:33.164Z,1.60
2019-03-15T09:32:06.443Z,1.37
2019-03-15T09:34:33.544Z,1.60
2019-03-15T09:37:02.988Z,1.20
2019-03-15T09:39:32.559Z,0.90
2019-03-15T09:42:01.934Z,1.43
2019-03-15T09:44:31.298Z,1.60
2019-03-15T09:47:02.491Z,0.87
2019-03-15T09:49:31.889Z,0.90
2019-03-15T09:52:01.268Z,0.50
2019-03-15T09:54:30.625Z,0.60
2019-03-15T09:57:00.020Z,0.40
2019-03-15T09:59:29.380Z,0.80
2019-03-15T10:01:58.796Z,0.50
2019-03-15T10:04:28.227Z,0.47
2019-03-15T10:06:57.667Z,0.40
2019-03-15T10:09:27.035Z,0.40
2019-03-15T10:11:56.703Z,1.10
2019-03-15T10:14:26.162Z,0.50
2019-03-15T10:16:55.533Z,0.40
2019-03-15T10:19:24.874Z,0.40
2019-03-15T10:21:54.366Z,0.60
2019-03-15T10:24:23.725Z,0.40
2019-03-15T10:26:53.107Z,0.40
2019-03-15T10:29:22.464Z,0.30
2019-03-15T10:31:51.838Z,0.40
2019-03-15T10:34:21.205Z,0.77
2019-03-15T10:36:50.589Z,0.53
2019-03-15T10:39:19.974Z,0.30
2019-03-15T10:41:49.351Z,0.60
2019-03-15T10:44:18.800Z,0.40
2019-03-15T10:46:48.164Z,0.27
2019-03-15T10:49:17.491Z,0.93
2019-03-15T10:51:47.169Z,0.20
2019-03-15T10:54:16.535Z,0.80
2019-03-15T10:56:46.011Z,0.30
2019-03-15T10:59:15.393Z,0.60
2019-03-15T11:01:44.775Z,0.40
2019-03-15T11:04:14.142Z,0.30
2019-03-15T11:06:43.549Z,0.30
2019-03-15T11:09:12.933Z,0.50
2019-03-15T11:11:42.315Z,0.40
2019-03-15T11:14:11.699Z,0.30
2019-03-15T11:16:41.075Z,0.40
2019-03-15T11:19:10.504Z,0.30
2019-03-15T11:21:39.952Z,0.30
2019-03-15T11:24:09.309Z,2.30
2019-03-15T11:26:38.688Z,0.30
2019-03-15T11:29:08.048Z,0.30
2019-03-15T11:31:37.458Z,0.40
2019-03-15T11:34:06.829Z,0.40
2019-03-15T11:36:36.202Z,0.30
2019-03-15T11:39:06.817Z,0.30
2019-03-15T11:41:36.192Z,0.30
2019-03-15T11:44:05.620Z,0.30
2019-03-15T11:46:35.002Z,0.30
2019-03-15T11:49:04.375Z,0.50
2019-03-15T11:51:33.745Z,0.30
2019-03-15T11:54:03.190Z,0.20
2019-03-15T11:56:32.568Z,0.63
2019-03-15T11:59:01.958Z,0.30
2019-03-15T12:01:31.252Z,0.30
2019-03-15T12:04:03.099Z,0.47
2019-03-15T12:06:32.468Z,0.40
2019-03-15T12:09:01.834Z,0.20
2019-03-15T12:11:31.219Z,0.30
2019-03-15T12:14:00.605Z,0.20
2019-03-15T12:16:30.008Z,0.30
2019-03-15T12:18:59.448Z,0.40
2019-03-15T12:21:28.888Z,0.23
2019-03-15T12:23:58.337Z,0.27
2019-03-15T12:26:39.686Z,0.20
2019-03-15T12:28:58.830Z,0.27
2019-03-15T12:31:28.271Z,0.20
2019-03-15T12:33:57.634Z,0.23
2019-03-15T12:36:27.059Z,0.20
2019-03-15T12:38:58.409Z,0.30
2019-03-15T12:41:27.498Z,0.30
2019-03-15T12:43:56.868Z,0.30
2019-03-15T12:46:26.320Z,0.30
2019-03-15T12:48:55.684Z,0.30
2019-03-15T12:51:31.961Z,0.30
2019-03-15T12:53:56.131Z,0.30
2019-03-15T12:56:25.516Z,0.30
2019-03-15T12:58:54.993Z,0.30
2019-03-15T13:01:24.354Z,0.30
2019-03-15T13:03:54.598Z,0.50
2019-03-15T13:06:24.091Z,0.30
2019-03-15T13:08:55.111Z,0.20
2019-03-15T13:11:24.557Z,0.30
2019-03-15T13:13:53.898Z,0.20
2019-03-15T13:16:25.175Z,0.40
2019-03-15T13:18:54.552Z,0.30
2019-03-15T13:21:23.947Z,0.20
2019-03-15T13:23:53.309Z,0.20
2019-03-15T13:26:22.680Z,0.50
2019-03-15T13:28:52.059Z,0.40
2019-03-15T13:31:21.423Z,0.30
2019-03-15T13:33:50.818Z,0.30
2019-03-15T13:36:20.232Z,0.50
2019-03-15T13:38:49.619Z,0.50
2019-03-15T13:41:19.007Z,1.00
2019-03-15T13:43:48.454Z,1.40
2019-03-15T13:46:17.849Z,0.60
2019-03-15T13:48:47.216Z,0.23
2019-03-15T13:51:16.599Z,0.40
2019-03-15T13:53:46.039Z,0.37
2019-03-15T13:56:15.444Z,0.40
2019-03-15T13:58:56.751Z,0.30
2019-03-15T14:01:15.949Z,0.40
2019-03-15T14:03:45.428Z,0.40
2019-03-15T14:06:16.528Z,0.20
2019-03-15T14:08:45.898Z,0.40
2019-03-15T14:11:15.272Z,0.30
2019-03-15T14:13:44.664Z,0.23
2019-03-15T14:16:14.014Z,0.30
2019-03-15T14:18:43.478Z,0.90
2019-03-15T14:21:12.832Z,0.63
2019-03-15T14:23:42.154Z,0.67
2019-03-15T14:26:11.713Z,0.47
2019-03-15T14:28:41.064Z,0.40
2019-03-15T14:31:10.462Z,0.40
2019-03-15T14:33:39.905Z,0.30
2019-03-15T14:36:09.350Z,0.20
2019-03-15T14:38:39.049Z,0.30
2019-03-15T14:41:08.685Z,0.57
2019-03-15T14:43:38.253Z,0.70
2019-03-15T14:46:07.651Z,0.23
2019-03-15T14:48:37.062Z,0.33
2019-03-15T14:51:06.421Z,0.40
2019-03-15T14:53:35.796Z,0.37
2019-03-15T14:56:05.159Z,0.50
2019-03-15T14:58:34.569Z,0.27
2019-03-15T15:01:04.039Z,0.30
2019-03-15T15:03:33.499Z,0.20
2019-03-15T15:06:02.887Z,0.30
2019-03-15T15:08:32.250Z,0.23
2019-03-15T15:11:01.641Z,0.47
2019-03-15T15:13:31.020Z,0.30
2019-03-15T15:16:00.452Z,0.40
2019-03-15T15:18:32.765Z,1.00
2019-03-15T15:21:02.242Z,0.80
2019-03-15T15:23:34.489Z,1.37
2019-03-15T15:26:02.706Z,0.20
2019-03-15T15:28:32.135Z,0.30
2019-03-15T15:31:01.594Z,0.50
2019-03-15T15:33:31.048Z,0.50
2019-03-15T15:36:00.410Z,0.30
2019-03-15T15:38:29.947Z,0.30
2019-03-15T15:40:59.377Z,0.30
2019-03-15T15:43:28.754Z,0.40
2019-03-15T15:45:58.155Z,0.37
2019-03-15T15:48:27.539Z,0.30
2019-03-15T15:50:57.514Z,0.37
2019-03-15T15:53:26.933Z,0.30
2019-03-15T15:55:56.331Z,0.80
2019-03-15T15:58:25.773Z,0.80
2019-03-15T16:00:56.449Z,0.40
2019-03-15T16:03:25.893Z,0.60
2019-03-15T16:05:55.351Z,0.50
2019-03-15T16:08:24.757Z,0.30
2019-03-15T16:10:54.581Z,0.43
2019-03-15T16:13:24.090Z,0.30
2019-03-15T16:15:53.487Z,0.33
2019-03-15T16:18:22.852Z,0.30
2019-03-15T16:20:52.286Z,0.40
2019-03-15T16:23:21.636Z,0.30
2019-03-15T16:25:52.667Z,0.30
2019-03-15T16:28:31.298Z,0.60
2019-03-15T16:30:53.256Z,0.40
2019-03-15T16:33:22.630Z,0.30
2019-03-15T16:35:52.001Z,0.30
2019-03-15T16:38:21.508Z,0.57
2019-03-15T16:40:50.781Z,0.37
2019-03-15T16:43:20.204Z,0.50
2019-03-15T16:45:49.579Z,0.37
2019-03-15T16:48:19.058Z,0.30
2019-03-15T16:50:51.571Z,0.30
2019-03-15T16:53:19.498Z,0.40
2019-03-15T16:55:48.907Z,0.40
2019-03-15T16:58:18.288Z,0.40
2019-03-15T17:00:47.755Z,0.50
2019-03-15T17:03:17.144Z,0.60
2019-03-15T17:05:46.576Z,0.33
2019-03-15T17:08:17.617Z,0.40
2019-03-15T17:10:47.094Z,0.50
2019-03-15T17:13:16.529Z,0.30
2019-03-15T17:15:45.931Z,0.40
2019-03-15T17:18:15.325Z,0.40
2019-03-15T17:20:44.678Z,0.43
2019-03-15T17:23:14.070Z,0.50
2019-03-15T17:25:44.976Z,0.37
2019-03-15T17:28:14.370Z,0.30
2019-03-15T17:30:43.761Z,0.40
2019-03-15T17:33:29.019Z,0.30
2019-03-15T17:35:58.526Z,0.53
2019-03-15T17:38:27.909Z,0.40
2019-03-15T17:40:57.277Z,0.40
2019-03-15T17:43:26.719Z,0.60
2019-03-15T17:45:56.143Z,0.60
2019-03-15T17:48:25.505Z,0.50
2019-03-15T17:50:54.882Z,0.60
2019-03-15T17:53:24.249Z,0.50
2019-03-15T17:55:53.653Z,0.40
2019-03-15T17:58:25.874Z,0.30
2019-03-15T18:00:54.192Z,0.40
2019-03-15T18:03:23.922Z,0.60
2019-03-15T18:05:53.422Z,0.40
2019-03-15T18:08:22.874Z,0.50
2019-03-15T18:10:52.235Z,0.50
2019-03-15T18:13:21.925Z,0.53
2019-03-15T18:15:51.339Z,0.60
2019-03-15T18:18:20.754Z,0.50
2019-03-15T18:20:50.110Z,0.50
2019-03-15T18:23:19.486Z,0.50
2019-03-15T18:25:48.892Z,0.40
2019-03-15T18:28:18.292Z,0.30
2019-03-15T18:30:47.755Z,0.30
2019-03-15T18:33:17.141Z,0.60
2019-03-15T18:35:46.450Z,0.50
2019-03-15T18:38:15.830Z,0.77
2019-03-15T18:40:45.191Z,0.40
2019-03-15T18:43:14.651Z,0.50
2019-03-15T18:45:44.114Z,0.40
2019-03-15T18:48:13.491Z,0.40
2019-03-15T18:50:42.853Z,0.50
2019-03-15T18:53:13.419Z,0.50
2019-03-15T18:55:42.802Z,0.60
2019-03-15T18:58:12.192Z,0.53
2019-03-15T19:00:41.662Z,0.70
2019-03-15T19:03:11.038Z,0.97
2019-03-15T19:05:40.418Z,0.70
2019-03-15T19:08:09.811Z,0.40
2019-03-15T19:10:39.193Z,0.40
2019-03-15T19:13:08.655Z,0.60
2019-03-15T19:15:38.035Z,0.50
2019-03-15T19:18:07.483Z,0.50
2019-03-15T19:20:36.930Z,1.17
2019-03-15T19:23:06.288Z,0.50
2019-03-15T19:25:35.698Z,0.50
2019-03-15T19:28:05.159Z,0.30
2019-03-15T19:30:34.567Z,0.50
2019-03-15T19:33:03.990Z,0.47
2019-03-15T19:35:33.477Z,0.50
2019-03-15T19:38:02.943Z,0.40
2019-03-15T19:40:32.362Z,0.43
2019-03-15T19:43:01.735Z,0.53
2019-03-15T19:45:31.117Z,0.43
2019-03-15T19:48:00.490Z,0.60
2019-03-15T19:50:29.882Z,0.40
2019-03-15T19:52:59.287Z,0.70
2019-03-15T19:55:28.748Z,0.40
2019-03-15T19:57:59.670Z,0.50
2019-03-15T20:00:29.103Z,1.70
2019-03-15T20:02:58.479Z,0.40
2019-03-15T20:05:27.859Z,0.50
2019-03-15T20:07:57.257Z,0.43
2019-03-15T20:10:26.706Z,1.37
2019-03-15T20:12:56.177Z,0.77
2019-03-15T20:15:25.602Z,1.00
2019-03-15T20:17:54.987Z,1.23
2019-03-15T20:20:24.353Z,1.03
2019-03-15T20:22:54.739Z,0.47
2019-03-15T20:25:24.085Z,0.50
2019-03-15T20:27:53.473Z,0.50
2019-03-15T20:30:27.038Z,0.50
2019-03-15T20:32:56.552Z,0.57
2019-03-15T20:35:25.939Z,0.50
2019-03-15T20:37:55.331Z,0.40
2019-03-15T20:40:24.723Z,0.50
2019-03-15T20:42:54.106Z,0.50
2019-03-15T20:45:28.040Z,0.50
2019-03-15T20:47:57.464Z,0.50
2019-03-15T20:50:26.842Z,0.50
2019-03-15T20:53:07.881Z,0.50
2019-03-15T20:55:28.951Z,0.73
2019-03-15T20:57:58.630Z,0.40
2019-03-15T21:00:35.427Z,0.50
2019-03-15T21:02:59.308Z,0.90
2019-03-15T21:05:28.706Z,0.50
2019-03-15T21:07:58.117Z,0.50
2019-03-15T21:10:27.475Z,0.53
2019-03-15T21:12:56.843Z,0.50
2019-03-15T21:15:27.887Z,0.60
2019-03-15T21:17:57.300Z,0.50
2019-03-15T21:20:26.725Z,0.60
2019-03-15T21:22:56.119Z,0.40
2019-03-15T21:25:25.480Z,0.30
2019-03-15T21:27:54.961Z,0.60
2019-03-15T21:30:26.353Z,0.40
2019-03-15T21:32:55.741Z,0.40
2019-03-15T21:35:25.121Z,0.50
2019-03-15T21:37:54.502Z,0.40
2019-03-15T21:40:23.954Z,0.60
2019-03-15T21:42:53.333Z,0.40
2019-03-15T21:45:22.693Z,0.50
2019-03-15T21:47:52.094Z,0.40
2019-03-15T21:50:22.594Z,0.40
2019-03-15T21:52:52.078Z,0.40
2019-03-15T21:55:21.579Z,0.60
2019-03-15T21:57:50.955Z,0.53
2019-03-15T22:00:20.759Z,0.50
2019-03-15T22:02:50.250Z,0.70
2019-03-15T22:05:19.667Z,0.50
2019-03-15T22:07:50.244Z,0.50
2019-03-15T22:10:19.595Z,0.50
2019-03-15T22:12:48.992Z,0.40
2019-03-15T22:15:18.428Z,0.40
2019-03-15T22:17:47.883Z,0.40
2019-03-15T22:20:17.675Z,0.40
2019-03-15T22:22:47.088Z,0.33
2019-03-15T22:25:16.491Z,0.40
2019-03-15T22:27:45.898Z,0.50
2019-03-15T22:30:15.502Z,0.30
2019-03-15T22:32:44.909Z,0.40
2019-03-15T22:35:14.400Z,0.30
2019-03-15T22:37:43.842Z,0.70
2019-03-15T22:40:13.989Z,0.40
2019-03-15T22:42:43.418Z,0.93
2019-03-15T22:45:13.996Z,0.50
2019-03-15T22:47:43.417Z,0.60
2019-03-15T22:50:15.596Z,0.60
2019-03-15T22:52:45.014Z,0.30
2019-03-15T22:55:14.471Z,0.40
2019-03-15T22:57:43.860Z,0.40
2019-03-15T23:00:18.118Z,0.40
2019-03-15T23:02:47.562Z,0.43
2019-03-15T23:05:17.026Z,0.33
2019-03-15T23:07:46.544Z,0.37
2019-03-15T23:10:15.959Z,0.33
2019-03-15T23:12:45.359Z,0.33
2019-03-15T23:15:14.719Z,0.33
2019-03-15T23:17:44.105Z,0.30
2019-03-15T23:20:14.045Z,0.30
2019-03-15T23:22:43.528Z,0.30
2019-03-15T23:25:12.954Z,0.20
2019-03-15T23:27:42.386Z,0.40
2019-03-15T23:30:17.735Z,0.27
2019-03-15T23:32:47.199Z,0.30
2019-03-15T23:35:16.566Z,0.30
2019-03-15T23:37:45.954Z,0.20
2019-03-15T23:40:15.395Z,0.27
2019-03-15T23:42:44.775Z,0.30
2019-03-15T23:45:14.308Z,0.30
2019-03-15T23:47:43.747Z,0.30
2019-03-15T23:50:14.549Z,0.30
2019-03-15T23:52:44.020Z,0.27
2019-03-15T23:55:13.386Z,0.30
2019-03-15T23:57:42.811Z,0.30
